Time;durP1;ratioP1;P1;durP2;ratioP2;P2;SDS_P1;SDS_P2;PMS_P1;PMS_P2;Temp;Humidity;BMP_temperature;BMP_pressure;BME280_temperature;BME280_humidity;BME280_pressure;Samples;Min_cycle;Max_cycle;Signal;HPM_P1;HPM_P2
2021/11/18 00:01:34;;;;;;;23.92;3.67;;;7.50;99.90;;;;;;5053364;28;20067;-68
2021/11/18 00:04:00;;;;;;;29.73;4.15;;;7.50;99.90;;;;;;5058419;28;20430;-69
2021/11/18 00:06:26;;;;;;;21.48;3.50;;;7.50;99.90;;;;;;5058741;28;20044;-68
2021/11/18 00:08:51;;;;;;;26.40;3.38;;;7.50;99.90;;;;;;5053255;28;20033;-68
2021/11/18 00:11:20;;;;;;;20.88;3.33;;;7.50;99.90;;;;;;5059272;28;20071;-68
2021/11/18 00:13:52;;;;;;;17.17;2.95;;;7.50;99.90;;;;;;5064379;28;20501;-69
2021/11/18 00:16:18;;;;;;;21.92;3.13;;;7.50;99.90;;;;;;5061757;28;20097;-68
2021/11/18 00:18:44;;;;;;;18.08;3.17;;;7.50;99.90;;;;;;5059917;28;20028;-69
2021/11/18 00:21:11;;;;;;;21.40;3.13;;;7.50;99.90;;;;;;5062971;28;20029;-68
2021/11/18 00:23:41;;;;;;;22.63;3.40;;;7.50;99.90;;;;;;5057442;28;20364;-68
2021/11/18 00:26:08;;;;;;;18.63;3.58;;;7.50;99.90;;;;;;5063300;28;20052;-68
2021/11/18 00:28:34;;;;;;;22.33;3.22;;;7.60;99.90;;;;;;5058044;28;20040;-68
2021/11/18 00:31:00;;;;;;;30.73;4.65;;;7.60;99.90;;;;;;5059612;28;20037;-68
2021/11/18 00:33:26;;;;;;;18.30;3.65;;;7.60;99.90;;;;;;5063493;28;20032;-68
2021/11/18 00:35:52;;;;;;;26.35;4.40;;;7.70;99.90;;;;;;5060870;28;20082;-68
2021/11/18 00:38:19;;;;;;;22.27;4.30;;;7.70;99.90;;;;;;5056391;28;20049;-69
2021/11/18 00:40:47;;;;;;;23.75;3.90;;;7.70;99.90;;;;;;5062714;28;20048;-68
2021/11/18 00:43:14;;;;;;;21.75;5.05;;;7.70;99.90;;;;;;5063501;28;20059;-68
2021/11/18 00:45:40;;;;;;;23.27;4.53;;;7.70;99.90;;;;;;5061255;28;20570;-68
2021/11/18 00:48:07;;;;;;;23.08;4.25;;;7.70;99.90;;;;;;5060502;28;20133;-68
2021/11/18 00:50:45;;;;;;;22.67;4.00;;;7.70;99.90;;;;;;5060122;28;20101;-69
2021/11/18 00:53:12;;;;;;;20.42;5.57;;;7.80;99.90;;;;;;5057777;28;20532;-68
2021/11/18 00:55:37;;;;;;;21.42;4.25;;;7.70;99.90;;;;;;5058728;28;20039;-68
2021/11/18 00:58:05;;;;;;;18.27;4.40;;;7.80;99.90;;;;;;5058367;28;20036;-68
2021/11/18 01:00:34;;;;;;;24.77;4.75;;;7.80;99.90;;;;;;5091025;28;20070;-68
2021/11/18 01:03:01;;;;;;;19.90;4.45;;;7.80;99.90;;;;;;5060968;28;20048;-68
2021/11/18 01:05:29;;;;;;;18.83;4.32;;;7.80;99.90;;;;;;5060725;28;20040;-68
2021/11/18 01:07:57;;;;;;;16.73;3.30;;;7.80;99.90;;;;;;5057126;28;20044;-68
2021/11/18 01:10:25;;;;;;;21.38;3.58;;;7.80;99.90;;;;;;5059565;28;20087;-68
2021/11/18 01:12:50;;;;;;;21.80;3.80;;;7.70;99.90;;;;;;5061175;28;20041;-68
2021/11/18 01:15:24;;;;;;;15.60;3.88;;;7.70;99.90;;;;;;5059290;28;20493;-68
2021/11/18 01:17:50;;;;;;;16.25;3.60;;;7.70;99.90;;;;;;5059417;28;20040;-68
2021/11/18 01:20:18;;;;;;;22.60;4.47;;;7.70;99.90;;;;;;5058336;28;20340;-68
2021/11/18 01:22:44;;;;;;;21.83;4.00;;;7.70;99.90;;;;;;5059205;28;20101;-68
2021/11/18 01:25:11;;;;;;;21.67;4.55;;;7.60;99.90;;;;;;5060217;28;20041;-68
2021/11/18 01:27:37;;;;;;;22.13;4.00;;;7.70;99.90;;;;;;5060172;28;20044;-68
2021/11/18 01:30:11;;;;;;;25.10;4.03;;;7.70;99.90;;;;;;5058601;28;20036;-68
2021/11/18 01:32:36;;;;;;;23.67;3.75;;;7.60;99.90;;;;;;5091840;28;20487;-68
2021/11/18 01:35:09;;;;;;;27.05;4.20;;;7.60;99.90;;;;;;5060692;28;20119;-68
2021/11/18 01:37:34;;;;;;;26.63;4.68;;;7.60;99.90;;;;;;5058515;28;20094;-68
2021/11/18 01:40:00;;;;;;;18.17;3.83;;;7.70;99.90;;;;;;5059104;28;21861;-68
2021/11/18 01:42:26;;;;;;;20.33;4.35;;;7.60;99.90;;;;;;5058922;28;20054;-68
2021/11/18 01:44:52;;;;;;;17.63;3.80;;;7.70;99.90;;;;;;5060036;28;20123;-68
2021/11/18 01:47:18;;;;;;;25.75;4.15;;;7.70;99.90;;;;;;5060565;28;20040;-68
2021/11/18 01:49:47;;;;;;;23.73;5.03;;;7.60;99.90;;;;;;5057607;28;20155;-68
2021/11/18 01:52:16;;;;;;;24.13;4.53;;;7.70;99.90;;;;;;5060072;28;20119;-68
2021/11/18 01:54:44;;;;;;;27.05;4.47;;;7.70;99.90;;;;;;5060523;28;20113;-68
2021/11/18 01:57:14;;;;;;;19.95;4.13;;;7.70;99.90;;;;;;5060204;28;20048;-68
2021/11/18 01:59:43;;;;;;;32.00;4.47;;;7.70;99.90;;;;;;5057461;28;20062;-68
2021/11/18 02:02:10;;;;;;;23.02;4.63;;;7.70;99.90;;;;;;5075374;28;20055;-68
2021/11/18 02:04:55;;;;;;;23.35;4.57;;;7.70;99.90;;;;;;5059212;28;20056;-68
2021/11/18 02:07:21;;;;;;;22.65;4.72;;;7.80;99.90;;;;;;5058765;28;20063;-68
2021/11/18 02:09:49;;;;;;;21.15;4.97;;;7.70;99.90;;;;;;5058258;28;20135;-68
2021/11/18 02:12:24;;;;;;;29.83;5.65;;;7.70;99.90;;;;;;5059851;28;20040;-69
2021/11/18 02:14:50;;;;;;;18.53;4.77;;;7.70;99.90;;;;;;5059000;28;20119;-68
2021/11/18 02:17:19;;;;;;;26.30;4.90;;;7.70;99.90;;;;;;5060827;28;20808;-68
2021/11/18 02:19:48;;;;;;;25.60;4.82;;;7.80;99.90;;;;;;5059151;28;20087;-68
2021/11/18 02:22:16;;;;;;;26.92;5.43;;;7.80;99.90;;;;;;5058743;28;20059;-68
2021/11/18 02:24:52;;;;;;;28.13;5.93;;;7.80;99.90;;;;;;5090665;28;20033;-69
2021/11/18 02:27:20;;;;;;;21.60;4.75;;;7.80;99.90;;;;;;5058980;28;20378;-68
2021/11/18 02:29:48;;;;;;;21.95;4.90;;;7.90;99.90;;;;;;5056310;28;20487;-68
2021/11/18 02:32:18;;;;;;;24.38;5.57;;;8.00;99.90;;;;;;5059139;28;20045;-68
2021/11/18 02:34:50;;;;;;;29.35;5.90;;;8.00;99.90;;;;;;5059823;28;20039;-68
2021/11/18 02:37:16;;;;;;;33.00;7.28;;;7.90;99.90;;;;;;5056980;28;20052;-68
2021/11/18 02:39:42;;;;;;;35.83;6.20;;;8.00;99.90;;;;;;5056021;28;20052;-69
2021/11/18 02:42:09;;;;;;;25.02;6.63;;;8.00;99.90;;;;;;5059130;28;20119;-68
2021/11/18 02:44:36;;;;;;;27.88;6.13;;;8.10;99.90;;;;;;5062174;28;20352;-68
2021/11/18 02:47:06;;;;;;;28.27;6.30;;;8.10;99.90;;;;;;5061723;28;20037;-68
2021/11/18 02:49:32;;;;;;;35.03;7.20;;;8.00;99.90;;;;;;5060334;28;20375;-68
2021/11/18 02:51:58;;;;;;;26.50;5.72;;;8.20;99.90;;;;;;5061907;28;20032;-68
2021/11/18 02:54:23;;;;;;;23.25;6.20;;;8.10;99.90;;;;;;5065178;28;20104;-68
2021/11/18 02:56:52;;;;;;;29.75;7.35;;;8.10;99.90;;;;;;5064786;28;20044;-68
2021/11/18 02:59:18;;;;;;;30.15;6.50;;;8.10;99.90;;;;;;5060308;28;20037;-68
2021/11/18 03:01:46;;;;;;;30.50;6.82;;;8.10;99.90;;;;;;5058373;28;20048;-68
2021/11/18 03:04:13;;;;;;;19.55;5.93;;;8.20;99.90;;;;;;5062431;28;20037;-68
2021/11/18 03:06:39;;;;;;;28.50;6.43;;;8.20;99.90;;;;;;5092373;28;20533;-68
2021/11/18 03:09:05;;;;;;;29.20;6.43;;;8.20;99.90;;;;;;5058721;28;20086;-68
2021/11/18 03:11:31;;;;;;;23.30;6.00;;;8.20;99.90;;;;;;5064250;28;20083;-68
2021/11/18 03:13:57;;;;;;;30.60;6.65;;;8.20;99.90;;;;;;5063458;28;20039;-68
2021/11/18 03:16:24;;;;;;;27.58;6.70;;;8.20;99.90;;;;;;5059933;28;20066;-68
2021/11/18 03:18:50;;;;;;;27.38;5.93;;;8.20;99.90;;;;;;5055259;28;20044;-68
2021/11/18 03:21:23;;;;;;;27.55;7.10;;;8.20;99.90;;;;;;5056165;28;20044;-68
2021/11/18 03:23:49;;;;;;;31.70;5.85;;;8.20;99.90;;;;;;5059394;28;20051;-68
2021/11/18 03:26:22;;;;;;;28.23;7.22;;;8.20;99.90;;;;;;5059016;28;20068;-68
2021/11/18 03:28:49;;;;;;;26.35;6.28;;;8.20;99.90;;;;;;5069770;28;20044;-68
2021/11/18 03:31:15;;;;;;;30.33;6.25;;;8.20;99.90;;;;;;5055717;28;20099;-68
2021/11/18 03:33:45;;;;;;;34.30;6.47;;;8.20;99.90;;;;;;5060272;28;20031;-68
2021/11/18 03:36:12;;;;;;;24.95;7.25;;;8.20;99.90;;;;;;5074220;28;20173;-69
2021/11/18 03:38:40;;;;;;;25.60;6.55;;;8.10;99.90;;;;;;5055647;28;20702;-68
2021/11/18 03:41:06;;;;;;;30.25;7.05;;;8.10;99.90;;;;;;5061955;28;20140;-68
2021/11/18 03:43:46;;;;;;;30.55;6.78;;;8.10;99.90;;;;;;5094459;28;20051;-68
2021/11/18 03:46:13;;;;;;;24.92;6.45;;;8.10;99.90;;;;;;5061853;28;20570;-68
2021/11/18 03:48:40;;;;;;;30.80;7.18;;;8.10;99.90;;;;;;5059873;28;20398;-68
2021/11/18 03:51:07;;;;;;;23.63;5.85;;;8.10;99.90;;;;;;5066438;28;20474;-68
2021/11/18 03:53:34;;;;;;;34.35;7.22;;;8.10;99.90;;;;;;5067488;28;20037;-68
2021/11/18 03:56:03;;;;;;;26.67;6.05;;;8.10;99.90;;;;;;5065566;28;20032;-68
2021/11/18 03:58:28;;;;;;;30.55;6.88;;;8.10;99.90;;;;;;5042978;28;20173;-68
2021/11/18 04:00:54;;;;;;;31.50;6.97;;;8.20;99.90;;;;;;5067852;28;20723;-68
2021/11/18 04:03:20;;;;;;;32.40;7.43;;;8.20;99.90;;;;;;5064550;28;20059;-68
2021/11/18 04:05:45;;;;;;;30.02;6.18;;;8.20;99.90;;;;;;5066427;28;20479;-68
2021/11/18 04:08:20;;;;;;;27.67;6.47;;;8.10;99.90;;;;;;5062310;28;20407;-68
2021/11/18 04:10:46;;;;;;;30.27;5.63;;;8.20;99.90;;;;;;5067973;28;20402;-68
2021/11/18 04:13:12;;;;;;;29.55;6.40;;;8.20;99.90;;;;;;5098576;28;20033;-68
2021/11/18 04:15:38;;;;;;;29.38;6.00;;;8.10;99.90;;;;;;5064952;28;20044;-68
2021/11/18 04:18:06;;;;;;;25.17;5.85;;;8.20;99.90;;;;;;5060304;28;20051;-69
2021/11/18 04:20:33;;;;;;;31.42;6.30;;;8.10;99.90;;;;;;5066179;28;20040;-68
2021/11/18 04:22:59;;;;;;;27.63;7.03;;;8.10;99.90;;;;;;5062842;28;20056;-68
2021/11/18 04:25:29;;;;;;;20.63;5.80;;;8.20;99.90;;;;;;5079091;28;20053;-68
2021/11/18 04:27:56;;;;;;;33.67;6.75;;;8.10;99.90;;;;;;5095448;27;20049;-68
2021/11/18 04:30:29;;;;;;;39.50;6.80;;;8.10;99.90;;;;;;5061308;28;20048;-68
2021/11/18 04:32:55;;;;;;;28.33;5.97;;;8.10;99.90;;;;;;5061280;28;20092;-68
2021/11/18 04:35:21;;;;;;;26.35;5.85;;;8.20;99.90;;;;;;5093510;28;20135;-68
2021/11/18 04:37:46;;;;;;;33.53;6.60;;;8.20;99.90;;;;;;5063618;28;20048;-68
2021/11/18 04:40:13;;;;;;;24.38;6.18;;;8.20;99.90;;;;;;5063520;28;20044;-68
2021/11/18 04:42:41;;;;;;;23.13;5.57;;;8.30;99.90;;;;;;5063249;28;20036;-68
2021/11/18 04:45:08;;;;;;;32.63;6.15;;;8.20;99.90;;;;;;5063101;28;20072;-68
2021/11/18 04:47:34;;;;;;;27.33;6.72;;;8.20;99.90;;;;;;5092528;28;20049;-68
2021/11/18 04:49:59;;;;;;;27.58;7.43;;;8.20;99.90;;;;;;5060724;28;20494;-68
2021/11/18 04:52:25;;;;;;;30.05;7.70;;;8.20;99.90;;;;;;5065910;28;21082;-68
2021/11/18 04:54:51;;;;;;;30.98;6.30;;;8.30;99.90;;;;;;5077305;28;20143;-68
2021/11/18 04:57:16;;;;;;;34.97;6.65;;;8.20;99.90;;;;;;5060048;28;20048;-68
2021/11/18 04:59:42;;;;;;;38.25;7.47;;;8.30;99.90;;;;;;5061407;28;20044;-68
2021/11/18 05:02:08;;;;;;;33.10;6.97;;;8.20;99.90;;;;;;5077195;28;20036;-68
2021/11/18 05:04:35;;;;;;;30.50;6.05;;;8.20;99.90;;;;;;5064241;28;20044;-68
2021/11/18 05:07:01;;;;;;;29.52;6.60;;;8.20;99.90;;;;;;5059654;28;20041;-68
2021/11/18 05:09:26;;;;;;;26.25;5.78;;;8.30;99.90;;;;;;5056500;28;20033;-68
2021/11/18 05:11:53;;;;;;;25.48;6.47;;;8.30;99.90;;;;;;5060450;28;20052;-68
2021/11/18 05:14:19;;;;;;;25.17;5.30;;;8.30;99.90;;;;;;5062576;28;20037;-68
2021/11/18 05:16:44;;;;;;;28.77;6.95;;;8.30;99.90;;;;;;5060929;28;20044;-68
2021/11/18 05:19:10;;;;;;;29.20;7.30;;;8.30;99.90;;;;;;5058020;28;20370;-68
2021/11/18 05:21:36;;;;;;;28.67;5.75;;;8.20;99.90;;;;;;5064242;28;20041;-68
2021/11/18 05:24:05;;;;;;;31.30;6.63;;;8.20;99.90;;;;;;5066661;28;20043;-68
2021/11/18 05:26:32;;;;;;;28.80;6.15;;;8.20;99.90;;;;;;5063621;28;20422;-68
2021/11/18 05:28:58;;;;;;;29.35;5.65;;;8.20;99.90;;;;;;5060466;28;20037;-68
2021/11/18 05:31:28;;;;;;;28.80;6.47;;;8.30;99.90;;;;;;5062851;28;20095;-68
2021/11/18 05:33:54;;;;;;;28.63;6.05;;;8.20;99.90;;;;;;5058324;28;20045;-68
2021/11/18 05:36:20;;;;;;;22.20;5.72;;;8.20;99.90;;;;;;5056890;28;20037;-68
2021/11/18 05:38:48;;;;;;;27.02;6.82;;;8.30;99.90;;;;;;5072006;28;20040;-68
2021/11/18 05:41:16;;;;;;;35.33;6.40;;;8.30;99.90;;;;;;5056907;28;20139;-68
2021/11/18 05:43:42;;;;;;;25.63;7.15;;;8.30;99.90;;;;;;5059839;28;20079;-68
2021/11/18 05:46:14;;;;;;;28.55;6.45;;;8.30;99.90;;;;;;5060884;28;21221;-68
2021/11/18 05:48:40;;;;;;;24.33;5.32;;;8.30;99.90;;;;;;5057753;28;20087;-68
2021/11/18 05:51:08;;;;;;;21.58;5.53;;;8.30;99.90;;;;;;5061219;28;20032;-68
2021/11/18 05:53:37;;;;;;;32.40;6.30;;;8.30;99.90;;;;;;5061613;28;20028;-68
2021/11/18 05:56:07;;;;;;;26.08;6.43;;;8.30;99.90;;;;;;5060427;28;20075;-68
2021/11/18 05:58:32;;;;;;;28.38;6.72;;;8.30;99.90;;;;;;5056083;28;20154;-68
2021/11/18 06:00:58;;;;;;;28.73;5.75;;;8.30;99.90;;;;;;5092062;28;20127;-68
2021/11/18 06:03:24;;;;;;;26.42;5.93;;;8.30;99.90;;;;;;5061387;28;20071;-68
2021/11/18 06:05:50;;;;;;;22.27;5.57;;;8.30;99.90;;;;;;5057723;28;20471;-68
2021/11/18 06:08:15;;;;;;;26.73;6.00;;;8.30;99.90;;;;;;5057349;28;20052;-68
2021/11/18 06:10:41;;;;;;;30.70;7.15;;;8.30;99.90;;;;;;5061404;28;20048;-68
2021/11/18 06:13:07;;;;;;;27.85;6.18;;;8.40;99.90;;;;;;5059189;28;20068;-68
2021/11/18 06:15:33;;;;;;;25.23;6.40;;;8.40;99.90;;;;;;5058978;28;20040;-68
2021/11/18 06:17:59;;;;;;;25.15;6.43;;;8.40;99.90;;;;;;5058302;28;20094;-68
2021/11/18 06:20:26;;;;;;;21.92;5.32;;;8.40;99.90;;;;;;5056506;28;20494;-68
2021/11/18 06:22:53;;;;;;;27.00;6.45;;;8.40;99.90;;;;;;5092521;28;20040;-68
2021/11/18 06:25:23;;;;;;;21.88;5.70;;;8.40;99.90;;;;;;5061151;28;20398;-68
2021/11/18 06:27:48;;;;;;;24.83;5.97;;;8.40;99.90;;;;;;5090251;28;20097;-68
2021/11/18 06:30:21;;;;;;;28.73;5.40;;;8.40;99.90;;;;;;5057660;28;20514;-68
2021/11/18 06:32:47;;;;;;;26.08;5.53;;;8.40;99.90;;;;;;5058201;28;20045;-68
2021/11/18 06:35:15;;;;;;;28.00;5.38;;;8.40;99.90;;;;;;5058664;28;20044;-68
2021/11/18 06:37:40;;;;;;;25.08;5.70;;;8.30;99.90;;;;;;5058618;28;20072;-68
2021/11/18 06:40:07;;;;;;;27.60;6.50;;;8.40;99.90;;;;;;5057977;28;20114;-68
2021/11/18 06:42:33;;;;;;;24.92;5.15;;;8.30;99.90;;;;;;5064116;28;20080;-68
2021/11/18 06:44:58;;;;;;;33.10;6.07;;;8.40;99.90;;;;;;5056906;28;20099;-68
2021/11/18 06:47:24;;;;;;;24.65;5.82;;;8.30;99.90;;;;;;5056065;28;20052;-68
2021/11/18 06:49:50;;;;;;;27.52;6.07;;;8.30;99.90;;;;;;5057972;28;20033;-68
2021/11/18 06:52:17;;;;;;;29.20;6.50;;;8.30;99.90;;;;;;5062022;28;20071;-68
2021/11/18 06:54:43;;;;;;;22.83;5.25;;;8.30;99.90;;;;;;5059888;28;20051;-69
2021/11/18 06:57:09;;;;;;;31.75;6.35;;;8.40;99.90;;;;;;5041651;28;20044;-69
2021/11/18 06:59:35;;;;;;;22.73;5.45;;;8.40;99.90;;;;;;5055278;28;20044;-69
2021/11/18 07:02:01;;;;;;;34.88;6.38;;;8.40;99.90;;;;;;5099039;28;20048;-69
2021/11/18 07:04:27;;;;;;;26.13;5.80;;;8.30;99.90;;;;;;5061259;28;20040;-69
2021/11/18 07:06:53;;;;;;;23.30;5.00;;;8.40;99.90;;;;;;5060144;28;20139;-69
2021/11/18 07:09:20;;;;;;;29.30;5.97;;;8.30;99.90;;;;;;5087256;28;20052;-69
2021/11/18 07:11:45;;;;;;;31.92;6.03;;;8.40;99.90;;;;;;5059129;28;21194;-69
2021/11/18 07:14:11;;;;;;;26.50;6.65;;;8.40;99.90;;;;;;5057602;28;20048;-69
2021/11/18 07:16:37;;;;;;;28.98;6.72;;;8.40;99.90;;;;;;5061803;28;20047;-69
2021/11/18 07:19:05;;;;;;;22.20;5.78;;;8.40;99.90;;;;;;5054694;28;22421;-70
2021/11/18 07:21:32;;;;;;;32.80;6.43;;;8.40;99.90;;;;;;5059696;28;20122;-70
2021/11/18 07:23:59;;;;;;;32.75;5.50;;;8.40;99.90;;;;;;5061514;28;20079;-70
2021/11/18 07:26:25;;;;;;;25.77;5.70;;;8.50;99.90;;;;;;5060580;28;22891;-70
2021/11/18 07:28:52;;;;;;;25.90;5.75;;;8.50;99.90;;;;;;5061293;28;20044;-70
2021/11/18 07:31:17;;;;;;;29.45;7.05;;;8.40;99.90;;;;;;5060905;28;20036;-70
2021/11/18 07:33:43;;;;;;;25.58;5.82;;;8.50;99.90;;;;;;5059160;28;20349;-70
2021/11/18 07:36:10;;;;;;;26.85;5.35;;;8.40;99.90;;;;;;5062758;28;20044;-70
2021/11/18 07:38:36;;;;;;;28.23;6.45;;;8.40;99.90;;;;;;5057627;28;20044;-70
2021/11/18 07:41:04;;;;;;;25.63;4.95;;;8.40;99.90;;;;;;5065175;28;20399;-70
2021/11/18 07:43:34;;;;;;;29.95;6.95;;;8.40;99.90;;;;;;5093644;28;20052;-70
2021/11/18 07:46:03;;;;;;;22.25;6.30;;;8.40;99.90;;;;;;5060585;28;20040;-70
2021/11/18 07:48:29;;;;;;;26.95;5.13;;;8.40;99.90;;;;;;5059907;28;20044;-70
2021/11/18 07:50:56;;;;;;;29.48;6.35;;;8.40;99.90;;;;;;5061842;28;20051;-70
2021/11/18 07:53:23;;;;;;;26.75;5.50;;;8.40;99.90;;;;;;5066052;28;20120;-70
2021/11/18 07:55:50;;;;;;;25.67;7.72;;;8.40;99.90;;;;;;5059867;28;20049;-70
2021/11/18 07:58:17;;;;;;;31.67;6.72;;;8.30;99.90;;;;;;5059826;28;20461;-70
2021/11/18 08:00:45;;;;;;;30.90;5.72;;;8.40;99.90;;;;;;5061635;28;20044;-70
2021/11/18 08:03:12;;;;;;;24.02;5.80;;;8.40;99.90;;;;;;5062091;28;20040;-69
2021/11/18 08:05:38;;;;;;;25.92;5.03;;;8.40;99.90;;;;;;5064217;28;20414;-70
2021/11/18 08:08:05;;;;;;;26.10;6.20;;;8.40;99.90;;;;;;5055124;28;20044;-70
2021/11/18 08:10:31;;;;;;;27.67;6.15;;;8.40;99.90;;;;;;5059287;28;20119;-70
2021/11/18 08:12:57;;;;;;;27.45;5.10;;;8.50;99.90;;;;;;5057802;28;20547;-70
2021/11/18 08:15:23;;;;;;;25.75;5.88;;;8.50;99.90;;;;;;5055249;28;20147;-70
2021/11/18 08:17:51;;;;;;;27.67;6.20;;;8.50;99.90;;;;;;5088089;28;20036;-70
2021/11/18 08:20:18;;;;;;;27.13;5.10;;;8.60;99.90;;;;;;5055564;28;20511;-70
2021/11/18 08:22:44;;;;;;;20.50;4.50;;;8.60;99.90;;;;;;5056822;28;20048;-70
2021/11/18 08:25:12;;;;;;;30.13;5.45;;;8.60;99.90;;;;;;5092557;28;20069;-70
2021/11/18 08:27:39;;;;;;;25.38;5.43;;;9.00;99.90;;;;;;5059647;28;20048;-70
2021/11/18 08:30:09;;;;;;;26.15;4.88;;;8.70;99.90;;;;;;5059512;28;20032;-69
2021/11/18 08:32:36;;;;;;;20.02;5.43;;;8.70;99.90;;;;;;5058637;28;20037;-70
2021/11/18 08:35:03;;;;;;;30.40;5.07;;;8.80;99.90;;;;;;5059706;28;20132;-70
2021/11/18 08:37:28;;;;;;;23.30;4.93;;;8.80;99.90;;;;;;5062629;28;20491;-69
2021/11/18 08:39:54;;;;;;;27.73;4.78;;;8.80;99.90;;;;;;5054950;28;20080;-70
2021/11/18 08:42:23;;;;;;;21.13;4.82;;;8.90;99.90;;;;;;5058561;28;20068;-69
2021/11/18 08:44:49;;;;;;;18.98;3.72;;;8.90;99.90;;;;;;5060890;28;20079;-69
2021/11/18 08:47:17;;;;;;;27.35;5.05;;;8.90;99.90;;;;;;5059884;28;20040;-70
2021/11/18 08:49:43;;;;;;;24.52;5.38;;;9.00;99.90;;;;;;5056762;28;20398;-70
2021/11/18 08:52:12;;;;;;;25.05;4.85;;;9.00;99.90;;;;;;5061869;28;20093;-70
2021/11/18 08:54:41;;;;;;;31.23;5.25;;;9.00;99.90;;;;;;5058673;28;20044;-70
2021/11/18 08:57:08;;;;;;;22.02;4.82;;;9.00;99.90;;;;;;5059541;28;20049;-69
2021/11/18 08:59:34;;;;;;;25.70;4.60;;;9.10;99.90;;;;;;5054129;28;20049;-69
2021/11/18 09:02:05;;;;;;;31.02;5.90;;;9.20;99.90;;;;;;5058694;28;20191;-70
2021/11/18 09:04:31;;;;;;;26.00;4.32;;;9.20;99.90;;;;;;5058710;28;20044;-70
2021/11/18 09:06:57;;;;;;;25.40;4.88;;;9.20;99.90;;;;;;5062359;28;20140;-70
2021/11/18 09:09:26;;;;;;;23.98;4.75;;;9.20;99.90;;;;;;5055898;28;20043;-70
2021/11/18 09:11:54;;;;;;;23.33;4.90;;;9.20;99.90;;;;;;5058092;28;20072;-70
2021/11/18 09:14:21;;;;;;;18.77;4.32;;;9.30;99.90;;;;;;5058637;28;20040;-69
2021/11/18 09:16:49;;;;;;;27.02;5.22;;;9.20;99.90;;;;;;5024642;28;1023284;-69
2021/11/18 09:19:20;;;;;;;24.27;5.30;;;9.30;99.90;;;;;;5056699;28;20049;-70
2021/11/18 09:21:47;;;;;;;30.40;5.50;;;9.30;99.90;;;;;;5075738;28;20041;-70
2021/11/18 09:24:16;;;;;;;24.25;5.22;;;9.30;99.90;;;;;;5058294;28;20040;-70
2021/11/18 09:26:45;;;;;;;23.48;5.72;;;9.40;99.90;;;;;;5059828;28;20075;-70
2021/11/18 09:29:10;;;;;;;23.30;4.85;;;9.30;99.90;;;;;;5088844;27;20044;-70
2021/11/18 09:31:36;;;;;;;23.83;5.80;;;9.40;99.90;;;;;;5061808;28;20081;-70
2021/11/18 09:34:03;;;;;;;24.33;4.18;;;9.40;99.90;;;;;;5060763;28;20037;-70
2021/11/18 09:36:30;;;;;;;21.88;5.03;;;9.50;99.90;;;;;;5061898;28;20040;-70
2021/11/18 09:38:58;;;;;;;24.42;5.53;;;9.50;99.90;;;;;;5053575;28;20067;-70
2021/11/18 09:41:27;;;;;;;22.15;4.80;;;9.50;99.90;;;;;;5063683;28;20055;-70
2021/11/18 09:44:08;;;;;;;23.00;5.07;;;9.60;99.90;;;;;;5056379;28;20044;-70
2021/11/18 09:46:44;;;;;;;18.88;4.55;;;9.70;99.90;;;;;;5061663;28;20495;-69
2021/11/18 09:49:22;;;;;;;24.20;4.95;;;9.70;99.90;;;;;;5056454;28;20086;-69
2021/11/18 09:52:06;;;;;;;18.77;4.32;;;9.80;99.90;;;;;;5072047;28;20044;-70
2021/11/18 09:54:57;;;;;;;22.25;4.63;;;9.90;99.90;;;;;;5060983;28;20044;-70
2021/11/18 09:57:33;;;;;;;26.58;5.72;;;9.90;99.90;;;;;;5058369;28;20044;-70
2021/11/18 10:00:08;;;;;;;;;;;10.10;99.90;;;;;;5060557;28;20603;-70
2021/11/18 10:02:53;;;;;;;18.58;4.43;;;10.10;99.90;;;;;;5059668;28;19950;-70
2021/11/18 10:05:54;;;;;;;32.15;5.43;;;10.20;99.90;;;;;;5061164;28;20040;-70
2021/11/18 10:08:23;;;;;;;25.17;4.85;;;10.30;99.90;;;;;;5059236;28;20101;-70
2021/11/18 10:11:05;;;;;;;20.83;4.18;;;10.40;99.90;;;;;;5063588;28;20056;-70
2021/11/18 10:14:03;;;;;;;23.92;5.82;;;10.40;99.90;;;;;;5059258;28;20127;-70
2021/11/18 10:16:39;;;;;;;28.08;4.50;;;10.50;99.90;;;;;;5055009;28;20076;-70
2021/11/18 10:19:08;;;;;;;23.27;4.43;;;10.60;99.90;;;;;;5057873;28;20051;-70
2021/11/18 10:21:39;;;;;;;23.42;4.57;;;10.60;99.90;;;;;;5060282;28;20040;-70
2021/11/18 10:24:15;;;;;;;20.67;4.43;;;10.70;99.90;;;;;;5078328;28;20425;-70
2021/11/18 10:26:48;;;;;;;26.50;4.45;;;10.80;99.90;;;;;;5060591;28;20040;-70
2021/11/18 10:29:24;;;;;;;24.05;5.43;;;10.80;99.90;;;;;;5054343;28;20041;-70
2021/11/18 10:31:51;;;;;;;21.73;3.95;;;10.80;99.90;;;;;;5072918;28;20084;-69
2021/11/18 10:34:21;;;;;;;31.25;5.35;;;10.90;99.90;;;;;;5057434;28;20126;-70
2021/11/18 10:37:05;;;;;;;24.95;4.93;;;10.90;99.90;;;;;;5058218;28;20043;-69
2021/11/18 10:39:44;;;;;;;23.50;4.32;;;11.00;99.90;;;;;;5058225;28;20028;-70
2021/11/18 10:42:21;;;;;;;25.73;5.22;;;11.00;99.90;;;;;;5057597;28;20048;-69
2021/11/18 10:44:56;;;;;;;20.98;4.22;;;11.10;99.90;;;;;;5058675;28;20052;-70
2021/11/18 10:47:31;;;;;;;21.45;3.97;;;11.20;99.90;;;;;;5059047;28;20082;-70
2021/11/18 10:50:04;;;;;;;26.20;5.13;;;11.30;99.90;;;;;;5058880;28;20033;-69
2021/11/18 10:52:35;;;;;;;27.38;5.45;;;11.30;99.90;;;;;;5059139;28;20113;-70
2021/11/18 10:55:09;;;;;;;22.42;4.78;;;11.40;99.90;;;;;;5060873;28;20044;-70
2021/11/18 10:57:50;;;;;;;24.23;4.47;;;11.30;99.90;;;;;;5060927;28;20507;-69
2021/11/18 11:00:25;;;;;;;20.90;3.85;;;11.30;99.90;;;;;;5056051;28;20075;-70
2021/11/18 11:02:51;;;;;;;18.63;4.45;;;11.40;99.90;;;;;;5093063;27;20550;-70
2021/11/18 11:05:39;;;;;;;19.23;3.95;;;11.50;99.90;;;;;;5057976;28;20053;-70
2021/11/18 11:08:28;;;;;;;29.73;4.95;;;11.60;99.90;;;;;;5059268;28;20090;-70
2021/11/18 11:10:59;;;;;;;25.35;4.72;;;11.80;99.90;;;;;;5056249;28;20135;-70
2021/11/18 11:13:37;;;;;;;24.20;5.05;;;11.90;99.90;;;;;;5055365;28;20041;-70
2021/11/18 11:16:19;;;;;;;21.55;4.35;;;12.00;99.90;;;;;;5058550;28;20051;-70
2021/11/18 11:18:54;;;;;;;24.00;5.55;;;12.10;99.90;;;;;;5088209;28;20080;-70
2021/11/18 11:21:23;;;;;;;26.83;4.60;;;12.20;99.90;;;;;;5054677;28;20063;-70
2021/11/18 11:23:57;;;;;;;20.67;4.72;;;12.30;99.90;;;;;;5057938;28;20795;-70
2021/11/18 11:27:00;;;;;;;26.70;5.85;;;12.50;99.90;;;;;;5053975;28;20083;-70
2021/11/18 11:29:39;;;;;;;24.13;4.72;;;12.50;99.90;;;;;;5059957;28;20040;-69
2021/11/18 11:32:43;;;;;;;29.20;5.47;;;12.40;99.90;;;;;;5092565;28;20048;-70
2021/11/18 11:35:15;;;;;;;26.92;5.40;;;12.30;99.90;;;;;;5064358;28;20055;-70
2021/11/18 11:38:20;;;;;;;27.30;4.85;;;12.20;99.90;;;;;;5059578;28;20134;-70
2021/11/18 11:41:17;;;;;;;27.83;4.95;;;12.10;99.90;;;;;;5063500;28;20497;-70
2021/11/18 11:43:58;;;;;;;24.45;4.95;;;12.00;99.90;;;;;;5060083;28;20167;-69
2021/11/18 11:46:39;;;;;;;22.80;5.13;;;11.90;99.90;;;;;;5058116;28;20040;-69
2021/11/18 11:49:27;;;;;;;19.80;4.88;;;11.90;99.90;;;;;;5057340;28;20117;-69
2021/11/18 11:52:16;;;;;;;22.17;4.28;;;11.90;99.90;;;;;;5060245;28;20082;-69
2021/11/18 11:54:42;;;;;;;26.98;5.55;;;11.80;99.90;;;;;;5061808;28;20063;-70
2021/11/18 11:57:21;;;;;;;27.58;4.50;;;11.80;99.90;;;;;;5062344;28;20041;-70
2021/11/18 12:00:02;;;;;;;26.15;6.10;;;11.80;99.90;;;;;;5059308;28;20048;-70
2021/11/18 12:02:36;;;;;;;20.90;4.47;;;11.70;99.90;;;;;;5063420;28;20051;-70
2021/11/18 12:05:15;;;;;;;24.52;6.00;;;11.80;99.90;;;;;;5061803;28;20052;-70
2021/11/18 12:08:02;;;;;;;21.25;4.93;;;11.80;99.90;;;;;;5062921;28;20044;-70
2021/11/18 12:10:48;;;;;;;26.15;5.43;;;11.80;99.90;;;;;;5062564;28;20367;-70
2021/11/18 12:13:31;;;;;;;22.83;4.13;;;11.80;99.90;;;;;;5069449;28;20455;-70
2021/11/18 12:16:10;;;;;;;23.02;5.13;;;11.80;99.90;;;;;;5064152;28;20068;-69
2021/11/18 12:18:43;;;;;;;23.63;4.55;;;11.80;99.90;;;;;;5059192;28;20229;-70
2021/11/18 12:21:10;;;;;;;23.30;5.70;;;11.80;99.90;;;;;;5064777;28;20101;-70
2021/11/18 12:24:02;;;;;;;29.50;6.07;;;11.80;99.90;;;;;;5083875;28;20047;-70
2021/11/18 12:26:43;;;;;;;23.38;5.70;;;11.80;99.90;;;;;;5066401;28;20049;-70
2021/11/18 12:29:24;;;;;;;28.77;7.22;;;11.70;99.90;;;;;;5061362;28;20067;-69
2021/11/18 12:32:05;;;;;;;23.30;4.53;;;11.80;99.90;;;;;;5062434;28;20041;-69
2021/11/18 12:34:52;;;;;;;27.77;5.93;;;11.70;99.90;;;;;;5075152;28;20628;-70
2021/11/18 12:37:48;;;;;;;22.73;4.45;;;11.70;99.90;;;;;;5063970;28;20051;-69
2021/11/18 12:40:16;;;;;;;22.13;4.80;;;11.60;99.90;;;;;;5065717;28;20052;-69
2021/11/18 12:43:03;;;;;;;24.50;4.80;;;11.60;99.90;;;;;;5066509;28;20036;-69
2021/11/18 12:46:00;;;;;;;19.90;4.88;;;11.70;99.90;;;;;;5094727;27;20051;-70
2021/11/18 12:48:51;;;;;;;26.90;4.63;;;11.70;99.90;;;;;;5063515;28;20032;-69
2021/11/18 12:51:23;;;;;;;35.20;5.63;;;11.60;99.90;;;;;;5064296;28;20029;-70
2021/11/18 12:54:27;;;;;;;23.58;5.22;;;11.60;99.90;;;;;;5063259;28;20125;-69
2021/11/18 12:56:52;;;;;;;26.83;4.88;;;11.60;99.90;;;;;;5095185;27;20551;-69
2021/11/18 12:59:42;;;;;;;22.90;4.20;;;11.60;99.90;;;;;;5042593;28;20049;-70
2021/11/18 13:02:37;;;;;;;23.02;5.45;;;11.60;99.90;;;;;;5063257;28;20063;-70